Time;durP1;ratioP1;P1;durP2;ratioP2;P2;SDS_P1;SDS_P2;PMS_P1;PMS_P2;Temp;Humidity;BMP_temperature;BMP_pressure;BME280_temperature;BME280_humidity;BME280_pressure;Samples;Min_cycle;Max_cycle;Signal;HPM_P1;HPM_P2
2022/01/16 00:04:06;;;;;;;14.75;4.95;;;;;;;1.92;68.62;99749.84;5030939;28;20064;-62
2022/01/16 00:05:05;;;;;;;11.75;4.72;;;;;;;1.95;68.01;99762.72;5032043;28;20052;-62
2022/01/16 00:07:51;;;;;;;14.85;5.05;;;;;;;1.79;68.75;99756.97;5021918;28;20401;-61
2022/01/16 00:10:37;;;;;;;12.80;4.45;;;;;;;1.81;68.51;99726.78;5031064;28;20512;-63
2022/01/16 00:13:23;;;;;;;11.80;4.28;;;;;;;1.76;68.32;99737.22;5029790;28;20481;-62
2022/01/16 00:16:13;;;;;;;7.72;4.20;;;;;;;1.83;68.54;99743.97;5030829;28;20060;-63
2022/01/16 00:18:59;;;;;;;9.32;4.00;;;;;;;1.93;67.72;99746.38;5030960;28;20057;-64
2022/01/16 00:21:45;;;;;;;9.70;4.18;;;;;;;1.92;67.98;99739.53;5022652;28;20056;-61
2022/01/16 00:24:31;;;;;;;8.65;3.90;;;;;;;1.83;68.68;99736.22;5031605;28;20053;-61
2022/01/16 00:27:17;;;;;;;12.07;4.32;;;;;;;1.60;69.74;99683.19;5031654;28;20118;-61
2022/01/16 00:30:04;;;;;;;12.27;4.50;;;;;;;1.80;69.43;99714.72;5031377;28;20389;-61
2022/01/16 00:32:50;;;;;;;7.53;4.00;;;;;;;1.80;69.26;99713.00;5031599;28;20132;-62
2022/01/16 00:35:36;;;;;;;9.38;3.92;;;;;;;1.84;68.66;99717.22;5031969;28;20492;-62
2022/01/16 00:38:21;;;;;;;10.65;4.15;;;;;;;1.78;67.77;99712.16;5031584;28;20056;-63
2022/01/16 00:41:07;;;;;;;10.57;4.13;;;;;;;1.84;67.52;99718.97;5036554;28;20072;-62
2022/01/16 00:43:54;;;;;;;10.45;3.97;;;;;;;1.82;68.68;99712.97;5040899;28;20095;-62
2022/01/16 00:46:40;;;;;;;10.15;4.15;;;;;;;1.88;68.17;99692.19;5035016;28;20053;-62
2022/01/16 00:49:26;;;;;;;10.23;3.83;;;;;;;1.87;68.64;99693.09;5035757;28;20057;-63
2022/01/16 00:52:11;;;;;;;8.68;4.00;;;;;;;1.74;68.21;99668.31;5034129;28;20052;-62
2022/01/16 00:55:02;;;;;;;10.95;3.53;;;;;;;1.91;68.63;99730.06;5034381;28;20053;-62
2022/01/16 00:57:48;;;;;;;9.55;4.20;;;;;;;1.74;68.38;99712.25;5034996;28;20048;-62
2022/01/16 01:00:34;;;;;;;8.18;3.70;;;;;;;1.89;68.88;99687.88;5035571;28;20056;-62
2022/01/16 01:03:20;;;;;;;8.27;3.58;;;;;;;1.92;68.66;99721.44;5041104;28;20060;-62
2022/01/16 01:06:06;;;;;;;7.45;3.47;;;;;;;1.83;68.95;99714.69;5035066;28;20052;-63
2022/01/16 01:08:53;;;;;;;9.63;3.60;;;;;;;1.77;69.23;99710.47;5034586;28;20053;-62
2022/01/16 01:11:41;;;;;;;8.02;3.72;;;;;;;1.69;69.61;99754.53;5034463;28;20392;-62
2022/01/16 01:14:38;;;;;;;12.30;4.75;;;;;;;1.52;71.36;99747.03;5034932;28;20405;-60
2022/01/16 01:17:25;;;;;;;10.05;4.15;;;;;;;1.63;70.32;99764.97;5034717;28;20060;-61
2022/01/16 01:20:16;;;;;;;10.05;4.93;;;;;;;1.45;71.61;99701.53;5046830;28;20056;-62
2022/01/16 01:23:02;;;;;;;15.25;5.70;;;;;;;1.05;73.43;99633.28;5032854;28;20056;-63
2022/01/16 01:25:48;;;;;;;10.88;4.72;;;;;;;1.25;72.68;99658.81;5032629;28;20057;-63
2022/01/16 01:28:34;;;;;;;12.35;4.43;;;;;;;1.39;72.04;99650.00;5032163;28;20052;-63
2022/01/16 01:31:21;;;;;;;8.80;4.50;;;;;;;1.50;71.25;99642.91;5033821;28;20530;-62
2022/01/16 01:34:07;;;;;;;11.18;4.32;;;;;;;1.27;71.81;99649.31;5024146;28;20409;-61
2022/01/16 01:36:53;;;;;;;10.07;4.63;;;;;;;1.07;72.54;99645.31;5033313;28;20064;-62
2022/01/16 01:39:39;;;;;;;10.85;4.80;;;;;;;1.31;72.44;99684.53;5033280;28;20054;-62
2022/01/16 01:42:31;;;;;;;10.60;4.43;;;;;;;1.29;72.34;99696.59;5028372;28;20064;-61
2022/01/16 01:51:52;;;;;;;7.80;4.43;;;;;;;1.00;73.37;99702.22;5033104;28;20044;-62
2022/01/16 01:54:38;;;;;;;9.02;4.13;;;;;;;0.74;74.48;99683.59;5032465;28;20056;-62
2022/01/16 01:57:30;;;;;;;8.82;3.92;;;;;;;0.89;74.02;99672.22;5033275;28;20376;-62
2022/01/16 02:00:20;;;;;;;11.05;4.50;;;;;;;0.83;73.79;99682.66;5020378;28;20056;-62
2022/01/16 02:03:22;;;;;;;11.75;4.55;;;;;;;0.83;74.02;99677.47;5032015;28;20076;-63
2022/01/16 02:06:24;;;;;;;7.15;4.05;;;;;;;0.59;74.81;99664.88;5032900;28;20117;-63
2022/01/16 02:09:10;;;;;;;6.57;3.60;;;;;;;0.61;74.70;99662.28;5032321;28;20064;-61
2022/01/16 02:11:56;;;;;;;9.65;4.60;;;;;;;0.69;74.21;99668.19;5032922;28;20060;-62
2022/01/16 02:14:59;;;;;;;8.75;3.92;;;;;;;0.53;75.01;99690.75;5032903;28;20048;-62
2022/01/16 02:39:14;;;;;;;11.48;4.38;;;;;;;0.75;72.54;99633.75;5032789;28;20048;-62
2022/01/16 02:42:00;;;;;;;9.40;3.95;;;;;;;0.58;72.74;99631.38;5033246;28;20052;-61
2022/01/16 02:45:00;;;;;;;8.18;3.80;;;;;;;0.58;72.78;99636.53;5033021;28;20400;-62
2022/01/16 02:47:46;;;;;;;7.82;4.13;;;;;;;0.78;72.49;99656.91;5033109;28;20052;-62
2022/01/16 02:50:37;;;;;;;8.85;3.92;;;;;;;0.61;72.91;99662.28;5031578;28;20523;-62
2022/01/16 02:53:25;;;;;;;14.07;5.88;;;;;;;0.55;72.94;99649.47;5033188;28;20057;-62
2022/01/16 02:56:11;;;;;;;11.95;4.57;;;;;;;0.47;73.26;99654.72;5032993;28;20056;-62
2022/01/16 02:58:57;;;;;;;16.80;5.10;;;;;;;0.16;74.12;99635.34;5031921;28;20060;-62
2022/01/16 03:01:44;;;;;;;11.25;4.88;;;;;;;0.15;74.32;99628.47;5032030;28;20049;-61
2022/01/16 03:04:30;;;;;;;13.63;4.85;;;;;;;0.20;74.46;99628.41;5023510;28;20048;-61
2022/01/16 03:07:16;;;;;;;7.93;4.05;;;;;;;0.09;75.07;99616.50;5032502;28;20072;-61
2022/01/16 03:13:10;;;;;;;8.02;4.38;;;;;;;-0.14;76.13;99635.66;5032287;28;20048;-62
2022/01/16 03:15:57;;;;;;;11.70;5.13;;;;;;;-0.41;77.53;99622.19;5031706;28;20057;-62
2022/01/16 03:22:02;;;;;;;13.40;5.25;;;;;;;-0.06;75.77;99626.97;5032451;28;20099;-62
2022/01/16 03:24:48;;;;;;;14.70;6.38;;;;;;;-0.26;76.62;99612.59;5023111;28;20086;-61
2022/01/16 03:27:36;;;;;;;12.80;5.78;;;;;;;-0.50;77.41;99627.41;5032459;28;20061;-61
2022/01/16 03:30:21;;;;;;;17.33;5.70;;;;;;;-0.56;77.76;99630.06;5032056;28;20053;-63
2022/01/16 03:33:08;;;;;;;12.38;5.57;;;;;;;-0.42;77.15;99632.50;5031485;28;20084;-62
2022/01/16 03:35:54;;;;;;;10.35;5.15;;;;;;;-0.10;75.87;99640.78;5032013;28;20068;-62
2022/01/16 03:38:39;;;;;;;13.57;5.47;;;;;;;0.04;74.86;99631.16;5032290;28;20053;-62
2022/01/16 03:41:28;;;;;;;15.02;5.43;;;;;;;-0.04;74.76;99622.66;5037292;28;20053;-61
2022/01/16 03:44:16;;;;;;;10.23;5.30;;;;;;;0.22;73.58;99635.25;5032050;28;20397;-61
2022/01/16 03:47:02;;;;;;;13.18;4.97;;;;;;;0.03;74.03;99634.63;5017141;28;20073;-61
2022/01/16 03:49:48;;;;;;;11.38;5.63;;;;;;;-0.22;74.97;99629.72;5036595;28;20052;-62
2022/01/16 03:52:34;;;;;;;15.48;5.95;;;;;;;-0.54;76.44;99638.63;5032108;28;20400;-62
2022/01/16 03:55:20;;;;;;;13.10;5.35;;;;;;;-0.35;75.94;99623.00;5037536;28;20061;-62
2022/01/16 03:58:05;;;;;;;10.23;5.35;;;;;;;-0.01;74.68;99628.66;5031781;28;20056;-61
2022/01/16 04:00:51;;;;;;;14.48;5.65;;;;;;;-0.03;74.40;99621.78;5031626;28;20053;-62
2022/01/16 04:03:37;;;;;;;8.65;4.63;;;;;;;0.14;73.47;99620.75;5031927;28;20500;-61
2022/01/16 04:06:23;;;;;;;14.85;5.72;;;;;;;-0.31;74.77;99607.50;5036689;28;20484;-60
2022/01/16 04:09:09;;;;;;;14.80;5.40;;;;;;;-0.92;77.59;99592.59;5031939;28;20045;-61
2022/01/16 04:11:57;;;;;;;12.90;6.18;;;;;;;-0.92;78.01;99628.63;5031547;28;20056;-62
2022/01/16 04:17:32;;;;;;;12.32;5.38;;;;;;;-0.36;76.04;99611.00;5034652;28;20052;-62
2022/01/16 04:20:18;;;;;;;15.48;6.38;;;;;;;-0.60;76.25;99620.66;5035885;28;20052;-62
2022/01/16 04:23:05;;;;;;;13.30;5.38;;;;;;;-0.85;77.77;99618.28;5035865;28;20053;-61
2022/01/16 04:25:51;;;;;;;13.88;5.55;;;;;;;-0.84;77.42;99619.97;5035854;28;20089;-62
2022/01/16 04:28:37;;;;;;;17.75;6.47;;;;;;;-1.35;78.36;99611.75;5035851;28;20056;-62
2022/01/16 04:31:23;;;;;;;12.43;5.97;;;;;;;-1.33;78.97;99607.47;5036068;28;20052;-62
2022/01/16 04:34:09;;;;;;;12.70;5.90;;;;;;;-1.33;79.03;99610.03;5035519;28;20053;-62
2022/01/16 04:36:54;;;;;;;15.60;6.00;;;;;;;-1.36;79.24;99607.50;5041065;28;20057;-62
2022/01/16 04:39:48;;;;;;;15.88;5.85;;;;;;;-1.45;79.17;99604.97;5040444;28;20052;-61
2022/01/16 04:45:38;;;;;;;12.48;5.53;;;;;;;-1.79;81.46;99598.25;5035688;28;20056;-62
2022/01/16 04:48:24;;;;;;;15.20;6.15;;;;;;;-1.54;79.67;99590.44;5041107;28;20056;-62
2022/01/16 04:51:10;;;;;;;16.17;6.45;;;;;;;-1.83;80.98;99573.47;5035344;28;20052;-61
2022/01/16 04:53:56;;;;;;;13.48;5.50;;;;;;;-1.76;80.63;99588.84;5035285;28;20053;-63
2022/01/16 04:56:42;;;;;;;16.38;6.78;;;;;;;-1.64;79.70;99580.22;5035370;28;20052;-62
2022/01/16 04:59:28;;;;;;;12.75;5.97;;;;;;;-2.08;82.14;99592.41;5033835;28;20057;-62
2022/01/16 05:02:14;;;;;;;17.80;7.15;;;;;;;-2.28;82.63;99595.00;5035146;28;20105;-63
2022/01/16 05:04:59;;;;;;;17.98;7.40;;;;;;;-2.00;80.83;99556.41;5035077;28;20065;-62
2022/01/16 05:07:45;;;;;;;13.98;5.78;;;;;;;-2.09;81.74;99584.69;5033719;28;20052;-62
2022/01/16 05:10:32;;;;;;;19.35;7.95;;;;;;;-2.02;81.23;99582.09;5033237;28;20060;-62
2022/01/16 05:19:15;;;;;;;14.23;6.50;;;;;;;-2.00;80.36;99580.38;5014123;28;20145;-62
2022/01/16 05:22:00;;;;;;;15.80;5.32;;;;;;;-1.82;79.90;99588.00;5027645;28;20072;-62
2022/01/16 05:24:47;;;;;;;18.80;6.68;;;;;;;-1.98;79.41;99582.94;5048747;28;20056;-62
2022/01/16 05:27:32;;;;;;;17.38;6.18;;;;;;;-2.19;80.92;99569.34;5036889;28;20058;-61
2022/01/16 05:30:18;;;;;;;16.50;6.57;;;;;;;-2.14;80.08;99562.44;5031713;28;20056;-62
2022/01/16 05:33:04;;;;;;;17.10;6.45;;;;;;;-1.90;79.26;99573.50;5033371;28;20056;-62
2022/01/16 05:35:50;;;;;;;15.48;6.45;;;;;;;-1.80;79.19;99576.88;5032119;28;20060;-62
2022/01/16 05:38:36;;;;;;;19.13;7.32;;;;;;;-2.28;80.19;99565.06;5060227;28;20404;-63
2022/01/16 05:41:22;;;;;;;14.50;6.22;;;;;;;-2.41;81.43;99565.94;5032428;28;20052;-61
2022/01/16 05:44:07;;;;;;;16.27;7.55;;;;;;;-2.32;80.77;99571.09;5018414;28;20504;-61
2022/01/16 05:46:53;;;;;;;21.58;7.50;;;;;;;-2.31;80.23;99574.47;5033057;28;20101;-62
2022/01/16 05:49:41;;;;;;;18.15;7.72;;;;;;;-2.23;79.24;99572.75;5031252;28;20037;-62
2022/01/16 05:52:26;;;;;;;18.15;7.85;;;;;;;-2.24;79.56;99576.19;5033179;28;20048;-63
2022/01/16 05:55:12;;;;;;;21.80;8.02;;;;;;;-2.32;79.67;99575.34;5033368;28;20060;-63
2022/01/16 05:57:58;;;;;;;17.98;8.00;;;;;;;-2.39;80.29;99574.50;5033005;28;20072;-63
2022/01/16 06:00:47;;;;;;;18.17;7.95;;;;;;;-2.41;80.28;99571.09;5032808;28;20060;-62
2022/01/16 06:03:33;;;;;;;21.05;8.57;;;;;;;-2.48;81.08;99577.97;5032870;28;20064;-62
2022/01/16 06:06:39;;;;;;;16.02;7.95;;;;;;;-2.72;82.12;99572.00;5033338;28;20064;-63
2022/01/16 06:09:26;;;;;;;19.17;7.93;;;;;;;-2.70;83.16;99575.41;5033858;28;20472;-62
2022/01/16 06:12:12;;;;;;;20.23;8.52;;;;;;;-2.66;82.85;99571.16;5033765;28;20091;-62
2022/01/16 06:15:00;;;;;;;17.67;7.47;;;;;;;-2.58;83.17;99571.13;5033638;28;20056;-63
2022/01/16 06:17:45;;;;;;;17.85;6.85;;;;;;;-2.67;83.64;99577.13;5033843;28;20068;-62
2022/01/16 06:20:31;;;;;;;20.25;7.40;;;;;;;-2.25;82.30;99565.06;5033674;28;20061;-62
2022/01/16 06:23:17;;;;;;;14.43;6.85;;;;;;;-2.40;82.63;99589.03;5033734;28;20036;-63
2022/01/16 06:26:03;;;;;;;18.15;7.35;;;;;;;-2.39;83.54;99589.91;5033615;28;20060;-63
2022/01/16 06:28:49;;;;;;;15.63;7.82;;;;;;;-2.36;83.31;99589.91;5033543;28;20056;-63
2022/01/16 06:31:35;;;;;;;19.20;7.35;;;;;;;-2.21;82.58;99598.41;5024428;28;20056;-63
2022/01/16 06:34:23;;;;;;;21.77;7.30;;;;;;;-2.31;82.75;99592.44;5011157;28;20452;-62
2022/01/16 06:37:09;;;;;;;19.23;6.63;;;;;;;-2.24;82.80;99594.16;5033376;28;20052;-63
2022/01/16 06:39:55;;;;;;;16.33;7.57;;;;;;;-2.32;83.12;99604.47;5032440;28;20388;-63
2022/01/16 06:42:42;;;;;;;17.98;8.10;;;;;;;-2.61;84.11;99582.22;5033279;28;20061;-61
2022/01/16 06:45:28;;;;;;;16.20;7.85;;;;;;;-2.42;83.93;99582.22;5033336;28;20048;-62
2022/01/16 06:48:14;;;;;;;24.50;9.10;;;;;;;-2.58;84.30;99573.69;5033258;28;20507;-62
2022/01/16 06:50:59;;;;;;;14.18;6.55;;;;;;;-2.36;84.20;99580.50;5032141;28;20049;-63
2022/01/16 06:53:47;;;;;;;18.70;7.57;;;;;;;-2.18;83.29;99571.03;5033591;28;20508;-63
2022/01/16 06:56:33;;;;;;;16.38;7.72;;;;;;;-2.28;83.44;99579.59;5033121;28;20060;-62
2022/01/16 06:59:18;;;;;;;17.13;8.32;;;;;;;-2.10;83.40;99576.13;5032874;28;20048;-62
2022/01/16 07:02:06;;;;;;;18.52;7.70;;;;;;;-1.95;82.41;99567.53;5032722;28;20052;-62
2022/01/16 07:04:51;;;;;;;20.52;8.18;;;;;;;-1.83;81.79;99566.63;5032841;28;20052;-63
2022/01/16 07:07:37;;;;;;;21.02;8.55;;;;;;;-1.64;81.46;99551.94;5032159;28;20052;-62
2022/01/16 07:10:24;;;;;;;20.38;8.05;;;;;;;-1.49;80.99;99563.88;5037478;28;20060;-61
2022/01/16 07:13:09;;;;;;;20.10;8.77;;;;;;;-1.28;79.38;99561.16;5032396;28;20052;-64
2022/01/16 07:16:05;;;;;;;20.70;7.57;;;;;;;-0.91;78.80;99560.84;5050993;28;20056;-64
2022/01/16 07:19:10;;;;;;;22.73;8.82;;;;;;;-1.00;78.02;99577.22;5050239;28;20059;-63
2022/01/16 07:21:56;;;;;;;19.73;8.00;;;;;;;0.52;80.36;99573.00;5050577;28;20143;-60
2022/01/16 07:24:42;;;;;;;21.08;8.30;;;;;;;-0.23;77.12;99573.94;5065077;28;20060;-60
2022/01/16 07:27:28;;;;;;;19.92;9.07;;;;;;;-0.56;77.08;99570.84;5037592;28;20072;-60
2022/01/16 07:30:16;;;;;;;15.38;6.70;;;;;;;0.42;83.83;99581.72;5053659;28;20554;-57
2022/01/16 07:33:03;;;;;;;17.65;8.20;;;;;;;0.81;74.80;99570.84;5056836;28;20044;-60
2022/01/16 07:35:49;;;;;;;21.48;8.73;;;;;;;0.56;75.17;99574.66;5052371;28;20048;-61
2022/01/16 07:38:34;;;;;;;25.85;9.05;;;;;;;1.31;76.12;99567.47;5052183;28;20691;-60
2022/01/16 07:41:20;;;;;;;18.08;9.32;;;;;;;0.39;75.45;99574.03;5048838;28;20068;-60
2022/01/16 07:44:06;;;;;;;24.98;9.65;;;;;;;-0.34;76.96;99580.94;5030716;28;20520;-59
2022/01/16 07:46:52;;;;;;;21.92;8.88;;;;;;;0.10;78.22;99583.84;5031071;28;20056;-60
2022/01/16 07:49:38;;;;;;;20.85;9.10;;;;;;;-0.02;76.35;99577.13;5030282;28;20453;-59
2022/01/16 07:52:24;;;;;;;19.38;7.82;;;;;;;1.89;97.39;99562.09;5021353;28;20060;-59
2022/01/16 07:55:11;;;;;;;21.73;9.02;;;;;;;1.33;70.76;99573.47;5032212;28;20056;-56
2022/01/16 07:57:57;;;;;;;16.98;8.30;;;;;;;1.14;72.82;99570.34;5037426;28;20393;-59
2022/01/16 08:00:43;;;;;;;20.27;8.65;;;;;;;1.05;71.91;99573.91;5043550;28;20504;-58
2022/01/16 08:03:30;;;;;;;18.65;8.57;;;;;;;1.08;71.18;99579.03;5033403;28;20046;-60
2022/01/16 08:06:16;;;;;;;19.63;9.00;;;;;;;1.08;70.33;99566.97;5030517;28;20057;-59
2022/01/16 08:09:02;;;;;;;16.20;8.60;;;;;;;1.38;69.31;99565.63;5031046;28;20056;-58
2022/01/16 08:11:48;;;;;;;22.77;8.43;;;;;;;1.08;69.48;99558.38;5011774;28;20056;-58
2022/01/16 08:14:35;;;;;;;23.20;9.48;;;;;;;1.94;66.26;99565.41;5025170;28;20101;-59
2022/01/16 08:17:21;;;;;;;22.10;9.32;;;;;;;2.24;66.63;99564.00;5011782;28;20057;-61
2022/01/16 08:20:08;;;;;;;17.45;8.40;;;;;;;2.19;66.97;99577.84;5011987;28;20244;-60
2022/01/16 08:22:54;;;;;;;14.85;8.43;;;;;;;2.24;67.14;99571.75;5012257;28;20057;-60
2022/01/16 08:25:41;;;;;;;18.20;8.68;;;;;;;2.55;65.26;99569.31;5012208;28;20053;-60
2022/01/16 08:28:27;;;;;;;17.88;7.60;;;;;;;2.91;64.35;99547.78;5018201;28;20056;-59
2022/01/16 08:31:13;;;;;;;22.48;9.10;;;;;;;3.39;62.22;99555.25;5011200;28;20057;-62
2022/01/16 08:33:59;;;;;;;21.85;9.55;;;;;;;3.66;61.36;99547.63;5032460;28;20113;-62
2022/01/16 08:36:44;;;;;;;19.33;9.57;;;;;;;2.91;62.98;99534.84;5036737;28;20063;-61
2022/01/16 08:39:30;;;;;;;20.02;9.35;;;;;;;3.06;62.71;99543.13;5044561;28;20056;-61
2022/01/16 08:42:16;;;;;;;18.30;9.18;;;;;;;3.05;62.53;99542.25;5031534;28;20076;-63
2022/01/16 08:45:02;;;;;;;19.15;10.02;;;;;;;3.15;62.39;99553.25;5036472;28;20057;-63
2022/01/16 08:47:48;;;;;;;25.15;10.90;;;;;;;3.22;61.72;99537.53;5030238;28;20056;-62
2022/01/16 08:50:35;;;;;;;22.15;9.32;;;;;;;4.45;64.50;99544.50;5022179;28;20396;-64
2022/01/16 08:53:21;;;;;;;25.73;10.85;;;;;;;3.93;59.84;99550.34;5031430;28;20048;-64
2022/01/16 08:56:07;;;;;;;24.98;10.82;;;;;;;2.86;62.76;99543.63;5036300;28;20060;-63
2022/01/16 08:58:52;;;;;;;25.88;10.82;;;;;;;2.86;63.54;99538.47;5036270;28;20053;-63
2022/01/16 09:01:38;;;;;;;19.70;8.93;;;;;;;3.00;65.35;99528.59;5004380;28;20061;-63
2022/01/16 09:04:24;;;;;;;21.05;10.77;;;;;;;3.05;62.55;99533.66;4994753;28;20053;-62
2022/01/16 09:07:09;;;;;;;18.25;9.75;;;;;;;3.08;62.63;99529.25;4995644;28;20049;-62
2022/01/16 09:09:57;;;;;;;26.42;12.13;;;;;;;2.81;63.35;99517.84;4995580;28;20058;-61
2022/01/16 09:12:43;;;;;;;23.77;10.90;;;;;;;3.32;62.96;99526.06;4995740;28;20061;-62
2022/01/16 09:15:29;;;;;;;28.85;11.52;;;;;;;4.29;60.17;99528.56;4994812;28;20118;-62
2022/01/16 09:18:17;;;;;;;23.02;11.23;;;;;;;3.90;61.01;99532.28;4995355;28;20061;-62
2022/01/16 09:21:02;;;;;;;23.77;11.40;;;;;;;3.94;60.63;99537.34;4995666;28;20054;-64
2022/01/16 09:23:50;;;;;;;20.95;10.52;;;;;;;4.73;58.57;99541.06;4995057;28;20088;-61
2022/01/16 09:26:36;;;;;;;23.10;10.90;;;;;;;4.34;59.41;99533.59;4995706;28;20050;-63
2022/01/16 09:29:21;;;;;;;22.23;10.32;;;;;;;4.03;59.71;99505.09;5023983;28;20469;-63
2022/01/16 09:32:08;;;;;;;16.60;9.90;;;;;;;4.01;60.49;99535.41;5009786;28;20065;-64
2022/01/16 09:34:53;;;;;;;22.42;11.30;;;;;;;4.00;60.14;99531.13;5020507;28;20061;-60
2022/01/16 09:37:39;;;;;;;29.25;11.10;;;;;;;4.05;60.65;99524.06;5013839;28;20565;-62
2022/01/16 09:40:24;;;;;;;23.30;11.80;;;;;;;4.10;60.01;99526.50;5014199;28;20061;-62
2022/01/16 09:43:11;;;;;;;21.25;10.77;;;;;;;4.26;60.39;99518.28;4994461;28;20049;-60
2022/01/16 09:45:56;;;;;;;23.60;11.45;;;;;;;4.55;59.00;99496.59;5000929;28;20054;-61
2022/01/16 09:48:43;;;;;;;24.33;11.15;;;;;;;5.71;66.21;99499.66;4994552;28;20057;-52
2022/01/16 09:51:30;;;;;;;19.00;9.68;;;;;;;6.34;54.32;99519.03;4995405;28;20053;-63
2022/01/16 09:54:16;;;;;;;21.52;9.40;;;;;;;6.06;54.84;99520.06;5012936;28;20060;-61
2022/01/16 09:57:02;;;;;;;19.63;10.00;;;;;;;6.45;53.72;99509.03;5011906;28;20126;-62
2022/01/16 09:59:47;;;;;;;18.10;9.00;;;;;;;6.58;53.09;99504.19;5018375;28;20060;-61
2022/01/16 10:02:33;;;;;;;18.50;9.32;;;;;;;7.11;52.97;99496.84;5031765;28;20057;-62
2022/01/16 10:05:49;;;;;;;21.02;10.35;;;;;;;5.98;53.80;99505.59;5032686;28;20072;-62
2022/01/16 10:08:34;;;;;;;21.50;10.25;;;;;;;5.84;54.48;99502.66;5038191;28;20044;-59
2022/01/16 10:11:28;;;;;;;20.17;9.40;;;;;;;6.42;53.67;99477.91;5031553;28;20056;-61
2022/01/16 10:14:21;;;;;;;19.17;8.73;;;;;;;7.93;50.08;99480.25;5022464;28;20052;-61
2022/01/16 10:17:14;;;;;;;15.55;8.95;;;;;;;8.12;48.20;99448.91;5030506;28;20400;-60
2022/01/16 10:20:06;;;;;;;17.63;8.90;;;;;;;8.18;47.12;99472.13;5031677;28;20057;-61
2022/01/16 10:22:57;;;;;;;15.68;8.38;;;;;;;8.20;48.61;99462.47;5035730;28;20061;-66
2022/01/16 10:25:47;;;;;;;14.32;8.32;;;;;;;7.30;50.00;99450.84;5030827;28;20048;-62
2022/01/16 10:28:33;;;;;;;16.13;8.18;;;;;;;8.40;47.96;99447.59;5032673;28;20048;-65
2022/01/16 10:31:27;;;;;;;18.70;10.50;;;;;;;7.19;50.31;99443.53;5032940;28;20045;-67
2022/01/16 10:34:31;;;;;;;18.00;9.02;;;;;;;7.07;50.96;99450.09;5033364;28;20045;-62
2022/01/16 10:37:32;;;;;;;19.65;9.45;;;;;;;7.57;50.05;99453.16;5032949;28;20504;-64
2022/01/16 10:40:31;;;;;;;22.80;9.70;;;;;;;6.58;52.67;99448.66;5058760;28;20068;-61
2022/01/16 10:43:36;;;;;;;25.27;11.27;;;;;;;7.18;50.85;99440.06;5031247;28;20053;-62
2022/01/16 10:46:26;;;;;;;20.88;10.13;;;;;;;7.57;50.06;99432.31;5032009;28;20075;-61
2022/01/16 10:49:17;;;;;;;20.38;10.95;;;;;;;7.31;50.40;99421.28;5030839;28;20048;-64
2022/01/16 10:52:09;;;;;;;23.58;11.32;;;;;;;7.42;50.73;99424.28;5032229;28;20052;-67
2022/01/16 10:54:55;;;;;;;20.63;9.18;;;;;;;8.80;48.64;99423.03;5032896;28;20052;-61
2022/01/16 10:57:41;;;;;;;17.73;10.05;;;;;;;8.75;46.74;99424.13;5031929;28;20048;-62
2022/01/16 11:00:26;;;;;;;15.95;9.55;;;;;;;8.47;47.17;99419.44;5032874;28;20084;-63
2022/01/16 11:03:14;;;;;;;17.73;8.75;;;;;;;8.97;46.59;99430.03;5032789;28;20056;-62
2022/01/16 11:06:02;;;;;;;14.95;8.73;;;;;;;8.95;47.10;99419.66;5032426;28;20389;-61
2022/01/16 11:08:58;;;;;;;17.17;9.43;;;;;;;9.49;44.94;99409.91;5038353;28;20048;-61
2022/01/16 11:12:00;;;;;;;19.92;9.65;;;;;;;8.49;47.94;99414.94;5032457;28;20066;-60
2022/01/16 11:14:46;;;;;;;20.55;10.25;;;;;;;8.96;46.33;99408.28;5032671;28;20052;-65
2022/01/16 11:17:33;;;;;;;18.90;9.02;;;;;;;10.16;43.96;99397.56;5032111;28;20053;-64
2022/01/16 11:20:26;;;;;;;19.30;9.38;;;;;;;8.80;46.21;99405.59;5032564;28;20685;-63
2022/01/16 11:23:29;;;;;;;17.33;9.50;;;;;;;9.01;46.06;99400.19;5036093;28;20397;-63
2022/01/16 11:26:20;;;;;;;21.83;10.17;;;;;;;8.89;46.53;99393.00;5031961;28;20052;-65
2022/01/16 11:29:06;;;;;;;18.10;9.90;;;;;;;9.86;44.52;99376.50;5031318;28;20403;-63
2022/01/16 11:31:53;;;;;;;17.67;10.38;;;;;;;9.05;46.50;99380.81;5031353;28;20057;-64
2022/01/16 11:34:40;;;;;;;18.70;10.02;;;;;;;8.98;46.76;99374.22;5038196;28;20064;-63
2022/01/16 11:37:27;;;;;;;16.80;9.27;;;;;;;9.73;45.15;99360.63;5032322;28;20187;-62
2022/01/16 11:40:28;;;;;;;15.88;9.57;;;;;;;9.63;45.69;99372.53;5031966;28;20060;-63
2022/01/16 11:43:18;;;;;;;17.13;10.20;;;;;;;7.95;47.71;99371.44;5032261;28;20048;-64
2022/01/16 11:46:12;;;;;;;17.42;9.73;;;;;;;7.88;49.04;99368.28;5031837;28;20068;-63
2022/01/16 11:48:58;;;;;;;18.63;10.80;;;;;;;6.18;53.46;99367.84;5044537;28;20068;-63
2022/01/16 11:51:49;;;;;;;17.50;9.60;;;;;;;6.19;54.52;99375.59;5031549;28;20040;-64
2022/01/16 11:54:40;;;;;;;19.98;10.30;;;;;;;6.94;52.63;99367.28;5030965;28;20056;-64
2022/01/16 11:57:28;;;;;;;20.70;10.95;;;;;;;7.31;51.51;99364.78;5031928;28;20065;-63
2022/01/16 12:00:16;;;;;;;17.40;9.65;;;;;;;8.56;48.53;99379.81;5034355;28;20405;-64
2022/01/16 12:03:03;;;;;;;17.70;9.50;;;;;;;6.74;52.70;99375.97;5031699;28;20052;-66
2022/01/16 12:05:50;;;;;;;23.20;10.63;;;;;;;7.25;51.42;99371.13;5031606;28;20049;-65
2022/01/16 12:08:36;;;;;;;24.33;10.73;;;;;;;6.94;52.37;99361.22;5032193;28;20072;-61
2022/01/16 12:11:38;;;;;;;22.20;11.10;;;;;;;7.19;52.59;99349.69;5030858;28;20065;-61
2022/01/16 12:15:01;;;;;;;18.52;9.82;;;;;;;7.09;52.65;99344.91;5031902;28;20056;-60
2022/01/16 12:17:49;;;;;;;23.65;9.98;;;;;;;7.08;52.52;99342.38;5031870;28;20123;-59
2022/01/16 12:20:37;;;;;;;18.02;10.10;;;;;;;7.29;52.91;99343.16;5030585;28;20056;-60
2022/01/16 12:23:29;;;;;;;22.75;10.75;;;;;;;7.86;50.71;99347.50;5030934;28;20064;-60
2022/01/16 12:26:32;;;;;;;19.38;10.00;;;;;;;6.70;53.67;99291.91;5036596;28;20400;-60
2022/01/16 12:29:18;;;;;;;21.42;10.48;;;;;;;6.51;54.89;99334.34;5031449;28;20052;-60
2022/01/16 12:32:04;;;;;;;23.70;11.52;;;;;;;5.88;57.02;99342.97;5031547;28;20060;-59
2022/01/16 12:34:49;;;;;;;23.50;11.55;;;;;;;6.41;57.04;99343.50;5031643;28;20057;-59
2022/01/16 12:37:43;;;;;;;23.67;10.85;;;;;;;7.08;68.93;99338.03;5032068;28;20393;-54
2022/01/16 12:40:28;;;;;;;22.33;9.77;;;;;;;6.97;54.51;99335.06;5035206;28;20060;-63
2022/01/16 12:43:21;;;;;;;18.98;9.40;;;;;;;6.64;55.90;99342.50;5035197;28;20060;-63
2022/01/16 12:46:10;;;;;;;19.80;10.35;;;;;;;5.86;58.52;99317.03;5034096;28;20048;-63
2022/01/16 12:48:57;;;;;;;22.80;10.70;;;;;;;6.40;56.31;99323.56;5034800;28;20064;-61
2022/01/16 12:51:47;;;;;;;20.58;10.15;;;;;;;6.30;62.90;99311.88;5038461;28;20048;-61
2022/01/16 12:54:34;;;;;;;19.48;10.25;;;;;;;5.87;58.65;99318.75;5038918;28;20056;-64
2022/01/16 12:57:26;;;;;;;20.45;9.57;;;;;;;5.32;60.44;99313.94;5034323;28;20044;-64
2022/01/16 13:00:13;;;;;;;26.02;11.20;;;;;;;4.33;63.51;99327.78;5037953;28;20061;-65
2022/01/16 13:03:01;;;;;;;22.52;10.95;;;;;;;4.84;61.87;99275.00;5034200;28;20409;-64
2022/01/16 13:05:46;;;;;;;20.77;10.88;;;;;;;5.16;61.01;99317.97;5035059;28;20400;-65
2022/01/16 13:08:50;;;;;;;20.55;10.27;;;;;;;4.51;63.64;99302.09;5035453;28;20068;-67
2022/01/16 13:11:42;;;;;;;18.33;9.77;;;;;;;4.60;63.38;99308.75;5033111;28;20061;-67
2022/01/16 13:14:30;;;;;;;20.75;10.27;;;;;;;4.63;63.86;99303.44;5019809;28;20049;-66
2022/01/16 13:17:17;;;;;;;21.40;10.23;;;;;;;5.09;62.13;99297.47;5015144;28;20061;-66
2022/01/16 13:20:14;;;;;;;17.10;9.65;;;;;;;5.34;61.43;99301.75;5014881;28;20502;-63
2022/01/16 13:22:59;;;;;;;19.63;9.75;;;;;;;5.73;60.24;99271.66;5020252;28;20057;-67
2022/01/16 13:25:45;;;;;;;19.08;10.35;;;;;;;6.20;58.98;99293.19;5015010;28;20160;-63
2022/01/16 13:28:31;;;;;;;21.42;9.90;;;;;;;6.42;57.93;99293.13;5014384;28;20462;-62
2022/01/16 13:31:17;;;;;;;23.65;10.45;;;;;;;6.90;55.98;99279.78;5014858;28;20060;-65
2022/01/16 13:34:31;;;;;;;20.10;10.00;;;;;;;6.83;57.06;99291.38;5012198;28;20512;-65
2022/01/16 13:37:20;;;;;;;20.17;9.40;;;;;;;6.37;58.07;99282.06;5011921;28;20057;-64
2022/01/16 13:40:09;;;;;;;20.83;11.97;;;;;;;5.17;60.96;99298.03;5012972;28;20053;-64
2022/01/16 13:43:06;;;;;;;18.92;10.20;;;;;;;6.20;59.27;99283.59;5013059;28;20428;-64
2022/01/16 13:45:53;;;;;;;22.10;10.30;;;;;;;6.47;58.39;99295.50;5013223;28;20053;-64
2022/01/16 13:48:41;;;;;;;18.55;8.88;;;;;;;6.40;58.38;99290.56;5013594;28;20501;-65
2022/01/16 13:51:30;;;;;;;20.73;10.25;;;;;;;5.89;59.93;99295.28;5014407;28;20056;-64
2022/01/16 13:54:16;;;;;;;21.25;10.43;;;;;;;6.33;58.32;99283.97;5027456;28;20061;-64